createdAt,value
2022-12-31T00:00:46.886Z,84.01
2022-12-31T00:01:43.521Z,83.92
2022-12-31T00:02:40.221Z,83.80
2022-12-31T00:03:38.755Z,83.51
2022-12-31T00:04:35.427Z,83.24
2022-12-31T00:05:33.409Z,83.21
2022-12-31T00:06:29.993Z,83.71
2022-12-31T00:07:26.579Z,83.10
2022-12-31T00:08:23.140Z,82.86
2022-12-31T00:09:19.699Z,83.00
2022-12-31T00:10:16.324Z,82.12
2022-12-31T00:11:13.859Z,81.59
2022-12-31T00:12:10.576Z,81.10
2022-12-31T00:13:12.039Z,81.51
2022-12-31T00:14:08.683Z,81.57
2022-12-31T00:15:05.903Z,82.81
2022-12-31T00:16:12.445Z,82.86
2022-12-31T00:17:09.284Z,83.33
2022-12-31T00:18:06.190Z,83.86
2022-12-31T00:19:04.202Z,83.62
2022-12-31T00:20:00.855Z,83.29
2022-12-31T00:20:57.433Z,83.05
2022-12-31T00:21:54.050Z,83.43
2022-12-31T00:22:50.771Z,83.72
2022-12-31T00:23:47.859Z,83.59
2022-12-31T00:24:44.542Z,84.16
2022-12-31T00:25:41.136Z,83.84
2022-12-31T00:26:37.780Z,84.06
2022-12-31T00:27:34.408Z,83.13
2022-12-31T00:28:31.517Z,82.36
2022-12-31T00:29:28.185Z,82.44
2022-12-31T00:30:24.833Z,82.53
2022-12-31T00:31:24.496Z,82.83
2022-12-31T00:32:21.094Z,83.30
2022-12-31T00:33:17.755Z,83.21
2022-12-31T00:34:14.285Z,83.45
2022-12-31T00:35:10.827Z,83.07
2022-12-31T00:36:12.190Z,82.69
2022-12-31T00:37:08.845Z,83.05
2022-12-31T00:38:05.429Z,83.52
2022-12-31T00:39:04.142Z,82.91
2022-12-31T00:40:00.717Z,81.52
2022-12-31T00:40:57.279Z,80.97
2022-12-31T00:41:54.010Z,81.39
2022-12-31T00:42:50.597Z,81.42
2022-12-31T00:43:48.284Z,80.83
2022-12-31T00:44:44.917Z,80.44
2022-12-31T00:45:41.554Z,79.47
2022-12-31T00:47:34.041Z,79.32
2022-12-31T00:48:31.106Z,78.81
2022-12-31T00:49:27.651Z,78.94
2022-12-31T00:50:24.331Z,78.77
2022-12-31T00:51:23.503Z,78.81
2022-12-31T00:52:20.173Z,78.95
2022-12-31T00:53:16.766Z,79.37
2022-12-31T00:54:13.667Z,80.09
2022-12-31T00:55:10.278Z,81.52
2022-12-31T00:56:15.726Z,81.97
2022-12-31T00:57:12.471Z,81.87
2022-12-31T00:58:09.257Z,80.90
2022-12-31T00:59:06.177Z,80.00
2022-12-31T01:00:02.886Z,79.75
2022-12-31T01:01:07.596Z,79.82
2022-12-31T01:02:04.487Z,79.91
2022-12-31T01:03:01.703Z,80.74
2022-12-31T01:04:02.758Z,81.30
2022-12-31T01:04:59.375Z,80.81
2022-12-31T01:05:59.261Z,79.95
2022-12-31T01:06:55.839Z,81.04
2022-12-31T01:07:52.429Z,82.32
2022-12-31T01:08:50.412Z,82.26
2022-12-31T01:09:46.962Z,82.11
2022-12-31T01:11:07.560Z,82.64
2022-12-31T01:12:04.392Z,82.46
2022-12-31T01:13:00.959Z,82.59
2022-12-31T01:14:10.635Z,82.74
2022-12-31T01:15:07.526Z,81.51
2022-12-31T01:16:11.811Z,80.89
2022-12-31T01:17:08.512Z,81.86
2022-12-31T01:18:07.466Z,82.62
2022-12-31T01:19:07.033Z,82.01
2022-12-31T01:20:03.709Z,80.64
2022-12-31T01:21:03.348Z,80.23
2022-12-31T01:21:59.955Z,80.49
2022-12-31T01:22:56.533Z,81.26
2022-12-31T01:23:53.152Z,82.08
2022-12-31T01:24:49.885Z,81.80
2022-12-31T01:25:46.471Z,81.45
2022-12-31T01:26:43.935Z,81.11
2022-12-31T01:27:40.524Z,81.35
2022-12-31T01:28:37.437Z,81.71
2022-12-31T01:29:34.138Z,81.71
2022-12-31T01:30:30.861Z,81.24
2022-12-31T01:31:28.293Z,78.88
2022-12-31T01:32:24.919Z,78.14
2022-12-31T01:33:21.707Z,78.20
2022-12-31T01:34:18.366Z,79.01
2022-12-31T01:35:14.990Z,80.04
2022-12-31T01:36:16.854Z,81.17
2022-12-31T01:37:15.547Z,81.78
2022-12-31T01:38:12.149Z,81.61
2022-12-31T01:39:09.522Z,81.55
2022-12-31T01:40:06.687Z,81.50
2022-12-31T01:41:03.994Z,80.67
2022-12-31T01:42:00.602Z,81.23
2022-12-31T01:42:58.464Z,81.95
2022-12-31T01:43:58.798Z,82.11
2022-12-31T01:44:56.406Z,81.82
2022-12-31T01:45:54.694Z,81.96
2022-12-31T01:46:56.368Z,82.07
2022-12-31T01:47:58.101Z,82.43
2022-12-31T01:48:59.244Z,82.31
2022-12-31T01:50:03.197Z,83.42
2022-12-31T01:50:59.873Z,83.37
2022-12-31T01:52:17.934Z,83.39
2022-12-31T01:53:16.185Z,82.62
2022-12-31T01:54:16.166Z,82.55
2022-12-31T01:55:16.551Z,82.34
2022-12-31T01:56:13.350Z,82.77
2022-12-31T01:57:11.352Z,82.72
2022-12-31T01:58:28.627Z,82.79
2022-12-31T01:59:27.603Z,83.69
2022-12-31T02:00:24.494Z,83.75
2022-12-31T02:01:31.077Z,83.86
2022-12-31T02:02:28.169Z,83.80
2022-12-31T02:03:27.344Z,82.96
2022-12-31T02:04:26.602Z,83.33
2022-12-31T02:05:32.582Z,83.96
2022-12-31T02:06:35.118Z,85.01
2022-12-31T02:07:31.572Z,84.82
2022-12-31T02:08:28.256Z,85.29
2022-12-31T02:09:24.944Z,84.77
2022-12-31T02:10:21.553Z,84.16
2022-12-31T02:11:22.793Z,84.40
2022-12-31T02:12:19.708Z,84.21
2022-12-31T02:13:16.533Z,85.40
2022-12-31T02:14:16.210Z,85.53
2022-12-31T02:15:12.948Z,85.95
2022-12-31T02:16:20.551Z,86.04
2022-12-31T02:17:37.875Z,85.32
2022-12-31T02:18:49.957Z,85.58
2022-12-31T02:20:05.502Z,85.33
2022-12-31T02:21:15.993Z,85.00
2022-12-31T02:22:57.448Z,85.11
2022-12-31T02:24:25.098Z,85.34
2022-12-31T02:25:36.728Z,85.30
2022-12-31T02:26:51.996Z,85.54
2022-12-31T02:27:56.875Z,85.70
2022-12-31T02:29:08.780Z,85.61
2022-12-31T02:30:05.422Z,84.88
2022-12-31T02:31:12.334Z,84.27
2022-12-31T02:32:24.846Z,84.20
2022-12-31T02:33:43.805Z,84.06
2022-12-31T02:34:47.395Z,83.73
2022-12-31T02:35:58.138Z,84.46
2022-12-31T02:36:57.784Z,84.37
2022-12-31T02:38:01.531Z,84.60
2022-12-31T02:38:59.488Z,85.05
2022-12-31T02:39:57.608Z,85.08
2022-12-31T02:40:54.982Z,85.67
2022-12-31T02:41:52.486Z,86.18
2022-12-31T02:42:55.118Z,86.78
2022-12-31T02:43:52.335Z,86.22
2022-12-31T02:44:49.070Z,86.38
2022-12-31T02:45:51.184Z,85.97
2022-12-31T02:47:23.237Z,85.19
2022-12-31T02:48:52.619Z,84.53
2022-12-31T02:50:13.687Z,83.72
2022-12-31T02:51:16.566Z,84.53
2022-12-31T02:52:25.697Z,83.79
2022-12-31T02:54:00.391Z,84.04
2022-12-31T02:55:11.662Z,84.41
2022-12-31T02:56:22.802Z,84.78
2022-12-31T02:57:28.375Z,85.69
2022-12-31T02:59:12.885Z,85.88
2022-12-31T03:00:32.173Z,86.19
2022-12-31T03:01:53.784Z,86.28
2022-12-31T03:02:52.706Z,85.71
2022-12-31T03:04:09.313Z,85.70
2022-12-31T03:05:06.968Z,86.01
2022-12-31T03:06:04.837Z,86.70
2022-12-31T03:07:14.819Z,86.92
2022-12-31T03:08:11.478Z,86.82
2022-12-31T03:09:13.711Z,86.76
2022-12-31T03:10:11.293Z,87.09
2022-12-31T03:11:27.833Z,86.95
2022-12-31T03:12:45.736Z,87.54
2022-12-31T03:13:42.279Z,86.71
2022-12-31T03:14:39.190Z,87.12
2022-12-31T03:15:35.848Z,87.07
2022-12-31T03:16:32.845Z,87.24
2022-12-31T03:17:29.596Z,87.36
2022-12-31T03:18:46.114Z,87.98
2022-12-31T03:20:01.303Z,87.89
2022-12-31T03:21:16.407Z,88.02
2022-12-31T03:22:28.555Z,88.49
2022-12-31T03:23:31.301Z,89.22
2022-12-31T03:24:46.674Z,88.81
2022-12-31T03:25:44.124Z,88.55
2022-12-31T03:26:40.778Z,87.84
2022-12-31T03:27:37.424Z,87.82
2022-12-31T03:28:34.093Z,87.90
2022-12-31T03:29:30.721Z,87.61
2022-12-31T03:30:28.202Z,88.22
2022-12-31T03:31:24.891Z,88.00
2022-12-31T03:32:21.480Z,89.05
2022-12-31T03:33:18.337Z,89.17
2022-12-31T03:34:15.721Z,89.61
2022-12-31T03:35:14.136Z,89.83
2022-12-31T03:36:14.095Z,89.19
2022-12-31T03:37:10.653Z,89.51
2022-12-31T03:38:07.839Z,89.25
2022-12-31T03:39:04.843Z,89.77
2022-12-31T03:40:01.483Z,89.27
2022-12-31T03:40:58.128Z,89.73
2022-12-31T03:41:54.771Z,89.03
2022-12-31T03:42:51.479Z,88.57
2022-12-31T03:43:48.101Z,88.63
2022-12-31T03:44:44.708Z,89.07
2022-12-31T03:45:41.908Z,88.51
2022-12-31T03:46:38.563Z,88.51
2022-12-31T03:47:35.191Z,87.86
2022-12-31T03:48:31.849Z,86.95
2022-12-31T03:49:28.577Z,86.53
2022-12-31T03:50:25.280Z,85.41
2022-12-31T03:51:21.905Z,85.07
2022-12-31T03:52:18.602Z,85.06
2022-12-31T03:53:15.291Z,84.86
2022-12-31T03:54:12.073Z,85.11
2022-12-31T03:55:10.318Z,85.44
2022-12-31T03:56:07.269Z,86.30
2022-12-31T03:57:03.995Z,86.07
2022-12-31T03:58:00.628Z,87.27
2022-12-31T03:58:57.225Z,88.56
2022-12-31T03:59:53.869Z,88.91
2022-12-31T04:00:51.073Z,89.23
2022-12-31T04:01:47.836Z,89.08
2022-12-31T04:02:45.073Z,88.76
2022-12-31T04:03:41.698Z,89.80
2022-12-31T04:04:38.346Z,89.74
2022-12-31T04:05:34.986Z,90.52
2022-12-31T04:06:31.650Z,90.15
2022-12-31T04:07:28.357Z,91.23
2022-12-31T04:08:25.178Z,90.93
2022-12-31T04:09:22.039Z,90.60
2022-12-31T04:10:19.711Z,90.44
2022-12-31T04:11:20.779Z,89.93
2022-12-31T04:12:17.812Z,89.54
2022-12-31T04:13:14.503Z,89.37
2022-12-31T04:14:11.818Z,88.29
2022-12-31T04:15:15.121Z,87.91
2022-12-31T04:16:11.729Z,87.90
2022-12-31T04:17:08.427Z,88.51
2022-12-31T04:18:05.099Z,88.17
2022-12-31T04:19:01.734Z,89.41
2022-12-31T04:19:58.596Z,89.08
2022-12-31T04:20:55.287Z,89.79
2022-12-31T04:21:52.130Z,90.07
2022-12-31T04:22:48.686Z,90.47
2022-12-31T04:23:45.305Z,90.98
2022-12-31T04:24:43.089Z,90.60
2022-12-31T04:25:39.781Z,90.58
2022-12-31T04:26:37.271Z,90.86
2022-12-31T04:27:34.059Z,91.05
2022-12-31T04:28:30.723Z,90.77
2022-12-31T04:29:27.553Z,90.83
2022-12-31T04:30:24.180Z,90.83
2022-12-31T04:31:20.931Z,89.07
2022-12-31T04:32:17.670Z,88.53
2022-12-31T04:33:14.287Z,87.59
2022-12-31T04:34:10.947Z,87.01
2022-12-31T04:35:08.392Z,87.59
2022-12-31T04:36:07.212Z,86.89
2022-12-31T04:37:04.248Z,86.21
2022-12-31T04:38:00.905Z,86.05
2022-12-31T04:38:57.535Z,85.95
2022-12-31T04:39:54.172Z,85.12
2022-12-31T04:41:09.452Z,84.55
2022-12-31T04:42:06.080Z,84.95
2022-12-31T04:43:02.662Z,85.04
2022-12-31T04:44:00.410Z,85.58
2022-12-31T04:44:56.975Z,86.49
2022-12-31T04:45:53.597Z,87.22
2022-12-31T04:46:50.255Z,88.31
2022-12-31T04:47:46.801Z,88.22
2022-12-31T04:48:43.969Z,88.73
2022-12-31T04:49:40.622Z,89.18
2022-12-31T04:50:37.304Z,88.87
2022-12-31T04:51:34.309Z,88.37
2022-12-31T04:52:30.990Z,89.68
2022-12-31T04:53:28.228Z,89.75
2022-12-31T04:54:24.850Z,89.96
2022-12-31T04:55:21.461Z,90.12
2022-12-31T04:56:19.021Z,90.52
2022-12-31T04:57:15.568Z,90.31
2022-12-31T04:58:12.111Z,91.12
2022-12-31T04:59:10.087Z,91.66
2022-12-31T05:00:08.076Z,90.43
2022-12-31T05:01:05.719Z,90.66
2022-12-31T05:02:02.651Z,90.38
2022-12-31T05:02:59.470Z,90.43
2022-12-31T05:03:56.070Z,90.56
2022-12-31T05:04:52.669Z,90.99
2022-12-31T05:05:50.112Z,91.21
2022-12-31T05:06:46.718Z,90.68
2022-12-31T05:07:43.307Z,91.79
2022-12-31T05:08:40.738Z,91.92
2022-12-31T05:09:38.417Z,92.32
2022-12-31T05:10:35.263Z,92.37
2022-12-31T05:11:31.998Z,92.41
2022-12-31T05:12:28.862Z,92.50
2022-12-31T05:13:31.187Z,92.80
2022-12-31T05:14:29.819Z,92.29
2022-12-31T05:15:26.453Z,92.23
2022-12-31T05:16:23.192Z,91.73
2022-12-31T05:17:20.844Z,90.54
2022-12-31T05:18:18.231Z,90.16
2022-12-31T05:19:14.989Z,89.89
2022-12-31T05:20:11.618Z,89.68
2022-12-31T05:21:08.452Z,89.66
2022-12-31T05:22:23.707Z,89.70
2022-12-31T05:23:20.378Z,90.66
2022-12-31T05:24:16.989Z,91.19
2022-12-31T05:25:13.737Z,91.40
2022-12-31T05:26:10.421Z,92.01
2022-12-31T05:27:07.125Z,92.89
2022-12-31T05:28:03.792Z,92.47
2022-12-31T05:29:00.621Z,92.91
2022-12-31T05:29:57.311Z,92.74
2022-12-31T05:30:54.281Z,92.88
2022-12-31T05:31:50.892Z,93.07
2022-12-31T05:32:47.599Z,93.33
2022-12-31T05:33:44.430Z,92.87
2022-12-31T05:34:41.123Z,93.25
2022-12-31T05:35:37.808Z,94.35
2022-12-31T05:36:34.417Z,94.03
2022-12-31T05:37:31.971Z,93.93
2022-12-31T05:38:28.644Z,94.41
2022-12-31T05:39:25.204Z,94.40
2022-12-31T05:40:22.157Z,94.76
2022-12-31T05:41:18.827Z,94.27
2022-12-31T05:42:15.479Z,94.21
2022-12-31T05:43:12.057Z,93.47
2022-12-31T05:44:10.710Z,93.92
2022-12-31T05:45:08.043Z,93.84
2022-12-31T05:46:05.714Z,93.68
2022-12-31T05:47:02.330Z,92.84
2022-12-31T05:47:59.105Z,92.61
2022-12-31T05:48:55.712Z,92.64
2022-12-31T05:49:52.244Z,92.97
2022-12-31T05:50:49.922Z,93.51
2022-12-31T05:51:46.601Z,93.52
2022-12-31T05:52:47.624Z,93.37
2022-12-31T05:53:44.600Z,93.08
2022-12-31T05:54:41.182Z,92.70
2022-12-31T05:55:37.797Z,93.25
2022-12-31T05:56:34.458Z,93.99
2022-12-31T05:57:31.054Z,93.61
2022-12-31T05:58:27.790Z,94.17
2022-12-31T05:59:25.021Z,94.24
2022-12-31T06:00:21.635Z,94.22
2022-12-31T06:01:18.417Z,93.83
2022-12-31T06:02:15.194Z,93.50
2022-12-31T06:03:12.085Z,93.03
2022-12-31T06:04:08.867Z,92.30
2022-12-31T06:05:06.394Z,92.13
2022-12-31T06:06:03.096Z,91.71
2022-12-31T06:06:59.690Z,91.41
2022-12-31T06:07:56.272Z,92.10
2022-12-31T06:08:53.111Z,92.85
2022-12-31T06:09:49.787Z,92.95
2022-12-31T06:10:46.422Z,93.79
2022-12-31T06:11:43.279Z,93.74
2022-12-31T06:12:39.935Z,93.23
2022-12-31T06:13:36.631Z,92.94
2022-12-31T06:14:33.381Z,93.01
2022-12-31T06:15:30.330Z,93.30
2022-12-31T06:16:27.325Z,92.71
2022-12-31T06:17:23.997Z,92.95
2022-12-31T06:18:20.671Z,93.04
2022-12-31T06:19:17.532Z,92.29
2022-12-31T06:20:14.119Z,92.35
2022-12-31T06:21:10.672Z,92.54
2022-12-31T06:22:07.291Z,92.75
2022-12-31T06:23:04.382Z,91.55
2022-12-31T06:24:01.245Z,91.46
2022-12-31T06:24:57.800Z,89.63
2022-12-31T06:25:54.433Z,88.95
2022-12-31T06:26:51.114Z,88.71
2022-12-31T06:27:47.737Z,88.72
2022-12-31T06:28:44.356Z,89.29
2022-12-31T06:29:41.018Z,89.82
2022-12-31T06:30:37.642Z,89.85
2022-12-31T06:31:34.524Z,90.25
2022-12-31T06:32:31.199Z,90.98
2022-12-31T06:33:28.580Z,90.46
2022-12-31T06:34:25.199Z,90.37
2022-12-31T06:35:22.196Z,90.77
2022-12-31T06:36:19.250Z,90.61
2022-12-31T06:37:15.885Z,90.02
2022-12-31T06:38:12.507Z,89.07
2022-12-31T06:39:09.081Z,88.90
2022-12-31T06:40:06.433Z,89.06
2022-12-31T06:41:07.747Z,89.46
2022-12-31T06:42:04.879Z,89.63
2022-12-31T06:43:01.432Z,89.14
2022-12-31T06:43:58.172Z,88.38
2022-12-31T06:44:54.688Z,88.55
2022-12-31T06:45:51.375Z,88.38
2022-12-31T06:46:49.877Z,87.84
2022-12-31T06:47:46.621Z,87.71
2022-12-31T06:48:45.004Z,87.87
2022-12-31T06:49:41.571Z,87.68
2022-12-31T06:50:39.438Z,87.77
2022-12-31T06:51:35.990Z,87.69
2022-12-31T06:52:32.910Z,88.03
2022-12-31T06:53:29.501Z,87.75
2022-12-31T06:54:26.473Z,87.48
2022-12-31T06:55:23.433Z,87.44
2022-12-31T06:56:26.622Z,87.64
2022-12-31T06:57:26.609Z,87.03
2022-12-31T06:58:23.815Z,87.10
2022-12-31T06:59:27.404Z,86.86
2022-12-31T07:00:24.274Z,86.45
2022-12-31T07:01:42.630Z,86.12
2022-12-31T07:03:17.742Z,86.76
2022-12-31T07:04:17.397Z,86.53
2022-12-31T07:05:46.596Z,86.16
2022-12-31T07:07:00.423Z,85.63
2022-12-31T07:08:32.398Z,85.64
2022-12-31T07:09:56.049Z,85.86
2022-12-31T07:11:26.864Z,85.63
2022-12-31T07:12:57.474Z,85.30
2022-12-31T07:14:09.751Z,85.26
2022-12-31T07:15:13.126Z,84.97
2022-12-31T07:16:30.847Z,84.51
2022-12-31T07:17:55.360Z,84.34
2022-12-31T07:19:12.431Z,84.68
2022-12-31T07:20:15.312Z,84.36
2022-12-31T07:21:14.920Z,84.33
2022-12-31T07:22:15.285Z,82.92
2022-12-31T07:23:12.215Z,83.06
2022-12-31T07:24:10.663Z,83.18
2022-12-31T07:25:08.003Z,82.16
2022-12-31T07:26:43.011Z,82.52
2022-12-31T07:28:04.478Z,81.63
2022-12-31T07:29:25.645Z,81.19
2022-12-31T07:30:33.194Z,81.44
2022-12-31T07:32:07.142Z,82.31
2022-12-31T07:33:40.896Z,81.96
2022-12-31T07:34:40.307Z,81.08
2022-12-31T07:36:14.195Z,81.57
2022-12-31T07:37:27.608Z,81.90
2022-12-31T07:38:57.307Z,81.41
2022-12-31T07:40:15.904Z,81.70
2022-12-31T07:41:18.193Z,81.19
2022-12-31T07:43:22.641Z,81.06
2022-12-31T07:44:30.158Z,80.54
2022-12-31T07:45:42.359Z,80.04
2022-12-31T07:46:51.293Z,79.42
2022-12-31T07:47:48.426Z,79.18
2022-12-31T07:48:45.610Z,79.67
2022-12-31T07:49:44.125Z,79.64
2022-12-31T07:50:40.983Z,79.36
2022-12-31T07:51:38.111Z,79.75
2022-12-31T07:52:35.108Z,79.49
2022-12-31T07:53:32.056Z,79.11
2022-12-31T07:54:28.651Z,78.76
2022-12-31T07:55:25.764Z,78.56
2022-12-31T07:56:22.455Z,78.01
2022-12-31T07:57:20.804Z,78.54
2022-12-31T07:58:53.466Z,78.19
2022-12-31T08:00:06.956Z,77.85
2022-12-31T08:01:04.397Z,77.81
2022-12-31T08:02:22.873Z,77.73
2022-12-31T08:04:00.216Z,77.07
2022-12-31T08:05:12.066Z,76.73
2022-12-31T08:06:08.866Z,77.03
2022-12-31T08:07:31.777Z,76.97
2022-12-31T08:08:50.123Z,77.68
2022-12-31T08:09:58.737Z,77.65
2022-12-31T08:11:18.383Z,78.38
2022-12-31T08:12:15.786Z,78.28
2022-12-31T08:13:13.087Z,78.51
2022-12-31T08:14:13.280Z,78.43
2022-12-31T08:15:18.443Z,78.63
2022-12-31T08:16:15.481Z,78.62
2022-12-31T08:17:17.128Z,79.03
2022-12-31T08:18:14.130Z,78.76
2022-12-31T08:19:18.900Z,78.96
2022-12-31T08:20:17.513Z,79.31
2022-12-31T08:21:43.191Z,79.21
2022-12-31T08:22:55.067Z,78.70
2022-12-31T08:24:19.967Z,78.54
2022-12-31T08:25:38.129Z,78.55
2022-12-31T08:26:53.347Z,78.46
2022-12-31T08:28:14.388Z,78.31
2022-12-31T08:29:11.119Z,77.60
2022-12-31T08:30:21.306Z,78.30
2022-12-31T08:31:30.928Z,78.54
2022-12-31T08:33:12.909Z,78.39
2022-12-31T08:34:31.034Z,78.06
2022-12-31T08:36:41.423Z,78.28
2022-12-31T08:37:46.947Z,77.56
2022-12-31T08:39:06.327Z,77.83
2022-12-31T08:40:12.359Z,77.46
2022-12-31T08:41:18.440Z,77.32
2022-12-31T08:42:48.108Z,77.65
2022-12-31T08:43:48.238Z,77.13
2022-12-31T08:45:00.707Z,76.27
2022-12-31T08:45:58.596Z,76.32
2022-12-31T08:47:07.473Z,76.21
2022-12-31T08:48:32.890Z,75.56
2022-12-31T08:49:32.580Z,75.74
2022-12-31T08:50:29.994Z,75.00
2022-12-31T08:51:27.229Z,74.99
2022-12-31T08:52:26.369Z,75.40
2022-12-31T08:53:23.288Z,74.99
2022-12-31T08:54:20.186Z,74.77
2022-12-31T08:55:18.876Z,74.64
2022-12-31T08:56:26.662Z,74.32
2022-12-31T08:57:42.287Z,74.06
2022-12-31T08:59:08.512Z,72.55
2022-12-31T09:00:18.807Z,74.70
2022-12-31T09:01:21.749Z,73.50
2022-12-31T09:02:37.090Z,74.30
2022-12-31T09:03:39.472Z,74.60
2022-12-31T09:04:55.271Z,75.24
2022-12-31T09:06:16.219Z,74.20
2022-12-31T09:07:14.227Z,73.22
2022-12-31T09:08:23.505Z,73.72
2022-12-31T09:09:33.084Z,73.65
2022-12-31T09:10:34.043Z,72.48
2022-12-31T09:12:06.085Z,71.93
2022-12-31T09:13:21.687Z,73.96
2022-12-31T09:14:40.178Z,73.23
2022-12-31T09:15:43.877Z,73.59
2022-12-31T09:16:40.511Z,74.60
2022-12-31T09:17:44.956Z,74.11
2022-12-31T09:18:43.081Z,73.93
2022-12-31T09:19:39.651Z,72.57
2022-12-31T09:20:44.713Z,72.73
2022-12-31T09:21:45.241Z,72.81
2022-12-31T09:22:42.121Z,72.51
2022-12-31T09:23:39.743Z,71.61
2022-12-31T09:24:36.665Z,70.72
2022-12-31T09:25:33.693Z,69.87
2022-12-31T09:26:39.405Z,69.55
2022-12-31T09:27:51.854Z,71.29
2022-12-31T09:28:51.077Z,71.06
2022-12-31T09:30:01.720Z,71.56
2022-12-31T09:31:28.100Z,71.86
2022-12-31T09:32:30.864Z,70.66
2022-12-31T09:33:40.400Z,71.70
2022-12-31T09:34:54.136Z,70.84
2022-12-31T09:36:01.644Z,70.80
2022-12-31T09:37:05.380Z,70.89
2022-12-31T09:38:15.142Z,70.81
2022-12-31T09:39:39.798Z,72.14
2022-12-31T09:41:15.110Z,70.38
2022-12-31T09:42:26.802Z,71.65
2022-12-31T09:43:42.103Z,69.77
2022-12-31T09:44:54.286Z,69.02
2022-12-31T09:46:03.600Z,67.43
2022-12-31T09:47:27.821Z,66.67
2022-12-31T09:48:46.171Z,67.95
2022-12-31T09:50:31.574Z,68.36
2022-12-31T09:51:30.189Z,69.03
2022-12-31T09:52:57.596Z,69.62
2022-12-31T09:54:15.699Z,68.18
2022-12-31T09:55:12.274Z,68.48
2022-12-31T09:56:26.212Z,68.14
2022-12-31T09:57:25.635Z,68.73
2022-12-31T09:58:41.863Z,68.56
2022-12-31T09:59:51.454Z,68.70
2022-12-31T10:01:01.350Z,69.87
2022-12-31T10:02:18.537Z,69.17
2022-12-31T10:03:37.063Z,68.39
2022-12-31T10:04:39.982Z,67.43
2022-12-31T10:05:48.498Z,68.86
2022-12-31T10:07:15.661Z,67.61
2022-12-31T10:08:49.849Z,66.77
2022-12-31T10:10:21.763Z,65.40
2022-12-31T10:11:39.626Z,66.78
2022-12-31T10:13:03.625Z,67.18
2022-12-31T10:14:03.171Z,68.10
2022-12-31T10:15:23.969Z,67.04
2022-12-31T10:16:43.125Z,66.40
2022-12-31T10:18:04.002Z,65.05
2022-12-31T10:19:12.730Z,64.91
2022-12-31T10:20:37.758Z,64.81
2022-12-31T10:22:08.155Z,64.83
2022-12-31T10:23:26.141Z,64.52
2022-12-31T10:24:50.437Z,65.06
2022-12-31T10:25:49.869Z,64.28
2022-12-31T10:27:01.849Z,64.45
2022-12-31T10:28:14.262Z,64.01
2022-12-31T10:29:19.568Z,65.06
2022-12-31T10:30:19.349Z,65.32
2022-12-31T10:31:45.420Z,66.91
2022-12-31T10:32:53.874Z,65.31
2022-12-31T10:34:26.807Z,65.77
2022-12-31T10:35:23.483Z,65.97
2022-12-31T10:36:47.187Z,66.16
2022-12-31T10:37:56.938Z,65.69
2022-12-31T10:39:24.276Z,64.84
2022-12-31T10:40:46.176Z,65.86
2022-12-31T10:41:49.126Z,65.17
2022-12-31T10:42:59.115Z,64.32
2022-12-31T10:44:19.973Z,65.19
2022-12-31T10:45:38.305Z,63.95
2022-12-31T10:47:10.759Z,62.48
2022-12-31T10:48:21.493Z,64.68
2022-12-31T10:49:51.807Z,64.68
2022-12-31T10:50:57.468Z,64.47
2022-12-31T10:51:54.066Z,64.45
2022-12-31T10:53:29.221Z,64.66
2022-12-31T10:54:53.497Z,64.16
2022-12-31T10:55:59.102Z,62.27
2022-12-31T10:57:13.903Z,63.64
2022-12-31T10:58:41.483Z,63.77
2022-12-31T10:59:56.630Z,64.87
2022-12-31T11:00:58.088Z,65.97
2022-12-31T11:02:11.938Z,64.30
2022-12-31T11:03:36.599Z,63.25
2022-12-31T11:05:07.989Z,63.82
2022-12-31T11:06:41.384Z,62.75
2022-12-31T11:07:49.804Z,62.01
2022-12-31T11:09:07.421Z,62.01
2022-12-31T11:10:41.354Z,61.90
2022-12-31T11:12:08.415Z,62.52
2022-12-31T11:13:29.704Z,62.27
2022-12-31T11:14:44.323Z,62.20
2022-12-31T11:15:50.087Z,62.81
2022-12-31T11:17:19.545Z,63.72
2022-12-31T11:18:38.499Z,62.69
2022-12-31T11:20:07.822Z,62.52
2022-12-31T11:21:12.537Z,63.61
2022-12-31T11:22:24.267Z,62.48
2022-12-31T11:23:35.577Z,62.14
2022-12-31T11:24:41.008Z,62.51
2022-12-31T11:26:25.198Z,61.03
2022-12-31T11:27:36.942Z,60.64
2022-12-31T11:28:45.173Z,60.36
2022-12-31T11:30:00.473Z,59.73
2022-12-31T11:31:20.120Z,60.44
2022-12-31T11:32:29.001Z,60.28
2022-12-31T11:33:31.680Z,60.30
2022-12-31T11:35:03.882Z,61.07
2022-12-31T11:36:08.864Z,60.86
2022-12-31T11:37:40.652Z,60.99
2022-12-31T11:38:51.616Z,60.72
2022-12-31T11:40:26.913Z,62.70
2022-12-31T11:41:58.991Z,62.03
2022-12-31T11:42:58.875Z,61.69
2022-12-31T11:44:16.441Z,62.46
2022-12-31T11:45:31.616Z,61.28
2022-12-31T11:46:57.127Z,61.33
2022-12-31T11:48:31.621Z,62.08
2022-12-31T11:49:59.377Z,62.26
2022-12-31T11:51:29.409Z,60.91
2022-12-31T11:52:51.074Z,61.47
2022-12-31T11:54:25.364Z,61.49
2022-12-31T11:55:27.617Z,60.45
2022-12-31T11:56:28.416Z,61.36
2022-12-31T11:57:34.019Z,62.07
2022-12-31T11:58:31.314Z,61.08
2022-12-31T11:59:27.973Z,61.50
2022-12-31T12:00:27.010Z,60.78
2022-12-31T12:01:35.950Z,60.76
2022-12-31T12:02:37.109Z,60.64
2022-12-31T12:03:38.661Z,61.04
2022-12-31T12:04:35.434Z,60.90
2022-12-31T12:05:33.836Z,59.88
2022-12-31T12:06:32.915Z,60.37
2022-12-31T12:07:31.768Z,60.98
2022-12-31T12:08:31.971Z,61.16
2022-12-31T12:09:32.239Z,61.19
2022-12-31T12:10:36.468Z,61.47
2022-12-31T12:11:39.173Z,61.55
2022-12-31T12:12:40.497Z,61.34
2022-12-31T12:13:37.096Z,60.25
2022-12-31T12:14:36.039Z,60.12
2022-12-31T12:15:35.512Z,60.05
2022-12-31T12:16:32.244Z,59.02
2022-12-31T12:17:34.342Z,59.22
2022-12-31T12:18:41.108Z,58.51
2022-12-31T12:19:46.564Z,58.48
2022-12-31T12:20:46.354Z,58.92
2022-12-31T12:21:47.853Z,59.62
2022-12-31T12:22:53.214Z,61.11
2022-12-31T12:24:19.399Z,60.01
2022-12-31T12:25:20.625Z,61.18
2022-12-31T12:26:38.672Z,60.01
2022-12-31T12:27:36.435Z,60.00
2022-12-31T12:28:46.110Z,59.44
2022-12-31T12:29:42.759Z,58.73
2022-12-31T12:30:41.402Z,58.89
2022-12-31T12:31:38.842Z,60.38
2022-12-31T12:32:35.824Z,60.17
2022-12-31T12:33:46.395Z,59.49
2022-12-31T12:34:49.329Z,59.38
2022-12-31T12:35:47.638Z,59.42
2022-12-31T12:36:47.853Z,59.31
2022-12-31T12:37:44.454Z,59.65
2022-12-31T12:38:41.458Z,58.75
2022-12-31T12:39:38.145Z,57.96
2022-12-31T12:40:35.812Z,58.59
2022-12-31T12:41:32.979Z,58.78
2022-12-31T12:42:30.330Z,58.50
2022-12-31T12:43:30.284Z,58.08
2022-12-31T12:44:26.945Z,57.80
2022-12-31T12:45:36.195Z,58.09
2022-12-31T12:46:48.386Z,58.58
2022-12-31T12:47:49.051Z,58.22
2022-12-31T12:48:49.653Z,58.71
2022-12-31T12:49:48.535Z,58.90
2022-12-31T12:50:47.948Z,59.15
2022-12-31T12:52:10.217Z,58.59
2022-12-31T12:53:18.839Z,58.97
2022-12-31T12:54:37.144Z,57.97
2022-12-31T12:55:52.470Z,59.52
2022-12-31T12:56:55.165Z,60.10
2022-12-31T12:58:19.654Z,60.04
2022-12-31T12:59:34.738Z,59.19
2022-12-31T13:00:57.895Z,59.03
2022-12-31T13:01:54.751Z,58.61
2022-12-31T13:03:09.855Z,58.31
2022-12-31T13:04:43.814Z,59.63
2022-12-31T13:05:43.141Z,58.84
2022-12-31T13:06:51.694Z,58.50
2022-12-31T13:08:24.946Z,58.89
2022-12-31T13:09:54.677Z,60.31
2022-12-31T13:11:11.483Z,60.04
2022-12-31T13:13:05.324Z,58.63
2022-12-31T13:14:05.921Z,58.91
2022-12-31T13:15:21.122Z,59.58
2022-12-31T13:16:35.412Z,60.92
2022-12-31T13:17:37.829Z,61.25
2022-12-31T13:18:34.422Z,61.27
2022-12-31T13:19:37.239Z,60.34
2022-12-31T13:20:45.743Z,60.09
2022-12-31T13:22:00.543Z,59.23
2022-12-31T13:23:14.197Z,58.51
2022-12-31T13:24:29.496Z,59.00
2022-12-31T13:25:38.250Z,60.25
2022-12-31T13:26:51.815Z,60.72
2022-12-31T13:27:51.977Z,61.44
2022-12-31T13:28:52.271Z,60.82
2022-12-31T13:29:49.817Z,60.47
2022-12-31T13:30:50.803Z,60.35
2022-12-31T13:31:50.217Z,60.34
2022-12-31T13:33:01.733Z,59.81
2022-12-31T13:34:06.485Z,59.94
2022-12-31T13:35:25.316Z,60.16
2022-12-31T13:36:24.775Z,60.43
2022-12-31T13:37:35.443Z,59.92
2022-12-31T13:38:37.613Z,59.70
2022-12-31T13:39:39.477Z,59.00
2022-12-31T13:40:41.317Z,58.05
2022-12-31T13:41:55.374Z,59.08
2022-12-31T13:43:06.268Z,59.80
2022-12-31T13:44:08.774Z,59.76
2022-12-31T13:45:16.932Z,59.07
2022-12-31T13:46:21.173Z,59.25
2022-12-31T13:47:33.211Z,57.58
2022-12-31T13:48:40.639Z,57.65
2022-12-31T13:49:39.953Z,58.69
2022-12-31T13:50:42.777Z,59.25
2022-12-31T13:51:42.223Z,59.91
2022-12-31T13:52:50.612Z,60.36
2022-12-31T13:54:27.672Z,60.13
2022-12-31T13:55:26.657Z,60.66